sensor_id;sensor_type;location;lat;lon;timestamp;temperature;humidity
18073;DHT22;9161;47.348;9.648;2023-12-29T00:01:21;4.10;99.90
18073;DHT22;9161;47.348;9.648;2023-12-29T00:06:24;4.10;99.90
18073;DHT22;9161;47.348;9.648;2023-12-29T00:11:28;3.80;99.90
18073;DHT22;9161;47.348;9.648;2023-12-29T00:16:30;3.80;99.90
18073;DHT22;9161;47.348;9.648;2023-12-29T00:21:32;4.00;99.90
18073;DHT22;9161;47.348;9.648;2023-12-29T00:26:36;3.70;99.90
18073;DHT22;9161;47.348;9.648;2023-12-29T00:31:38;3.50;99.90
18073;DHT22;9161;47.348;9.648;2023-12-29T00:36:40;3.70;99.90
18073;DHT22;9161;47.348;9.648;2023-12-29T00:41:44;3.80;99.90
18073;DHT22;9161;47.348;9.648;2023-12-29T00:46:46;3.70;99.90
18073;DHT22;9161;47.348;9.648;2023-12-29T00:51:48;3.70;99.90
18073;DHT22;9161;47.348;9.648;2023-12-29T00:56:51;3.70;99.90
18073;DHT22;9161;47.348;9.648;2023-12-29T01:01:53;3.80;99.90
18073;DHT22;9161;47.348;9.648;2023-12-29T01:06:56;3.80;99.90
18073;DHT22;9161;47.348;9.648;2023-12-29T01:11:59;3.90;99.90
18073;DHT22;9161;47.348;9.648;2023-12-29T01:17:01;4.20;99.90
18073;DHT22;9161;47.348;9.648;2023-12-29T01:22:03;4.80;99.90
18073;DHT22;9161;47.348;9.648;2023-12-29T01:27:07;4.50;99.90
18073;DHT22;9161;47.348;9.648;2023-12-29T01:32:09;4.40;99.90
18073;DHT22;9161;47.348;9.648;2023-12-29T01:37:11;4.60;99.90
18073;DHT22;9161;47.348;9.648;2023-12-29T01:42:15;5.00;99.90
18073;DHT22;9161;47.348;9.648;2023-12-29T01:47:17;4.90;99.90
18073;DHT22;9161;47.348;9.648;2023-12-29T01:52:20;5.40;99.90
18073;DHT22;9161;47.348;9.648;2023-12-29T01:57:23;6.30;99.90
18073;DHT22;9161;47.348;9.648;2023-12-29T02:02:26;7.10;99.90
18073;DHT22;9161;47.348;9.648;2023-12-29T02:07:28;7.10;99.90
18073;DHT22;9161;47.348;9.648;2023-12-29T02:12:33;7.00;99.90
18073;DHT22;9161;47.348;9.648;2023-12-29T02:17:41;6.80;99.90
18073;DHT22;9161;47.348;9.648;2023-12-29T02:22:45;6.20;99.90
18073;DHT22;9161;47.348;9.648;2023-12-29T02:27:55;5.60;99.90
18073;DHT22;9161;47.348;9.648;2023-12-29T02:33:01;5.50;99.90
18073;DHT22;9161;47.348;9.648;2023-12-29T02:38:04;5.20;99.90
18073;DHT22;9161;47.348;9.648;2023-12-29T02:43:08;4.90;99.90
18073;DHT22;9161;47.348;9.648;2023-12-29T02:48:10;4.70;99.90
18073;DHT22;9161;47.348;9.648;2023-12-29T02:53:13;4.60;99.90
18073;DHT22;9161;47.348;9.648;2023-12-29T02:58:16;4.50;99.90
18073;DHT22;9161;47.348;9.648;2023-12-29T03:03:19;4.50;99.90
18073;DHT22;9161;47.348;9.648;2023-12-29T03:08:21;4.50;99.90
18073;DHT22;9161;47.348;9.648;2023-12-29T03:13:25;4.60;99.90
18073;DHT22;9161;47.348;9.648;2023-12-29T03:18:26;4.60;99.90
18073;DHT22;9161;47.348;9.648;2023-12-29T03:23:29;4.60;99.90
18073;DHT22;9161;47.348;9.648;2023-12-29T03:28:32;4.60;99.90
18073;DHT22;9161;47.348;9.648;2023-12-29T03:33:34;4.60;99.90
18073;DHT22;9161;47.348;9.648;2023-12-29T03:38:36;4.50;99.90
18073;DHT22;9161;47.348;9.648;2023-12-29T03:43:40;4.40;99.90
18073;DHT22;9161;47.348;9.648;2023-12-29T03:48:41;4.50;99.90
18073;DHT22;9161;47.348;9.648;2023-12-29T03:53:44;4.60;99.90
18073;DHT22;9161;47.348;9.648;2023-12-29T03:58:47;4.70;99.90
18073;DHT22;9161;47.348;9.648;2023-12-29T04:03:50;4.90;99.90
18073;DHT22;9161;47.348;9.648;2023-12-29T04:08:52;4.90;99.90
18073;DHT22;9161;47.348;9.648;2023-12-29T04:13:55;4.90;99.90
18073;DHT22;9161;47.348;9.648;2023-12-29T04:18:57;5.00;99.90
18073;DHT22;9161;47.348;9.648;2023-12-29T04:24:00;4.70;99.90
18073;DHT22;9161;47.348;9.648;2023-12-29T04:29:04;4.30;99.90
18073;DHT22;9161;47.348;9.648;2023-12-29T04:34:06;4.00;99.90
18073;DHT22;9161;47.348;9.648;2023-12-29T04:39:08;3.90;99.90
18073;DHT22;9161;47.348;9.648;2023-12-29T04:44:12;3.90;99.90
18073;DHT22;9161;47.348;9.648;2023-12-29T04:49:14;4.00;99.90
18073;DHT22;9161;47.348;9.648;2023-12-29T04:54:16;4.10;99.90
18073;DHT22;9161;47.348;9.648;2023-12-29T04:59:19;4.10;99.90
18073;DHT22;9161;47.348;9.648;2023-12-29T05:04:21;4.00;99.90
18073;DHT22;9161;47.348;9.648;2023-12-29T05:09:23;4.00;99.90
18073;DHT22;9161;47.348;9.648;2023-12-29T05:14:27;4.00;99.90
18073;DHT22;9161;47.348;9.648;2023-12-29T05:19:29;4.00;99.90
18073;DHT22;9161;47.348;9.648;2023-12-29T05:24:31;4.20;99.90
18073;DHT22;9161;47.348;9.648;2023-12-29T05:29:35;4.20;99.90
18073;DHT22;9161;47.348;9.648;2023-12-29T05:34:37;4.20;99.90
18073;DHT22;9161;47.348;9.648;2023-12-29T05:39:41;4.20;99.90
18073;DHT22;9161;47.348;9.648;2023-12-29T05:44:45;4.00;99.90
18073;DHT22;9161;47.348;9.648;2023-12-29T05:49:47;4.00;99.90
18073;DHT22;9161;47.348;9.648;2023-12-29T05:54:49;4.00;99.90
18073;DHT22;9161;47.348;9.648;2023-12-29T05:59:53;4.10;99.90
18073;DHT22;9161;47.348;9.648;2023-12-29T06:04:55;4.20;99.90
18073;DHT22;9161;47.348;9.648;2023-12-29T06:09:57;4.20;99.90
18073;DHT22;9161;47.348;9.648;2023-12-29T06:15:02;4.20;99.90
18073;DHT22;9161;47.348;9.648;2023-12-29T06:20:06;4.20;99.90
18073;DHT22;9161;47.348;9.648;2023-12-29T06:25:09;4.20;99.90
18073;DHT22;9161;47.348;9.648;2023-12-29T06:30:14;4.30;99.90
18073;DHT22;9161;47.348;9.648;2023-12-29T06:35:16;4.20;99.90
18073;DHT22;9161;47.348;9.648;2023-12-29T06:40:18;4.20;99.90
18073;DHT22;9161;47.348;9.648;2023-12-29T06:45:22;4.20;99.90
18073;DHT22;9161;47.348;9.648;2023-12-29T06:50:24;4.30;99.90
18073;DHT22;9161;47.348;9.648;2023-12-29T06:55:26;4.30;99.90
18073;DHT22;9161;47.348;9.648;2023-12-29T07:00:30;4.30;99.90
18073;DHT22;9161;47.348;9.648;2023-12-29T07:05:32;4.40;99.90
18073;DHT22;9161;47.348;9.648;2023-12-29T07:10:34;4.40;99.90
18073;DHT22;9161;47.348;9.648;2023-12-29T07:15:38;4.50;99.90
18073;DHT22;9161;47.348;9.648;2023-12-29T07:20:40;4.50;99.90
18073;DHT22;9161;47.348;9.648;2023-12-29T07:25:42;4.60;99.90
18073;DHT22;9161;47.348;9.648;2023-12-29T07:30:45;4.70;99.90
18073;DHT22;9161;47.348;9.648;2023-12-29T07:35:47;4.70;99.90
18073;DHT22;9161;47.348;9.648;2023-12-29T07:40:49;4.80;99.90
18073;DHT22;9161;47.348;9.648;2023-12-29T07:45:53;5.00;99.90
18073;DHT22;9161;47.348;9.648;2023-12-29T07:50:57;5.30;99.90
18073;DHT22;9161;47.348;9.648;2023-12-29T07:56:00;5.50;99.90
18073;DHT22;9161;47.348;9.648;2023-12-29T08:01:04;5.60;99.90
18073;DHT22;9161;47.348;9.648;2023-12-29T08:06:07;5.60;99.90
18073;DHT22;9161;47.348;9.648;2023-12-29T08:11:13;5.80;99.90
18073;DHT22;9161;47.348;9.648;2023-12-29T08:16:18;5.90;99.90
18073;DHT22;9161;47.348;9.648;2023-12-29T08:21:21;6.10;99.90
18073;DHT22;9161;47.348;9.648;2023-12-29T08:26:23;6.30;99.90
18073;DHT22;9161;47.348;9.648;2023-12-29T08:31:26;6.30;99.90
18073;DHT22;9161;47.348;9.648;2023-12-29T08:36:30;6.30;99.90
18073;DHT22;9161;47.348;9.648;2023-12-29T08:41:32;6.40;99.90
18073;DHT22;9161;47.348;9.648;2023-12-29T08:46:37;6.60;99.90
18073;DHT22;9161;47.348;9.648;2023-12-29T08:51:39;6.70;99.90
18073;DHT22;9161;47.348;9.648;2023-12-29T08:56:41;6.70;99.90
18073;DHT22;9161;47.348;9.648;2023-12-29T09:01:45;6.80;99.90
18073;DHT22;9161;47.348;9.648;2023-12-29T09:06:48;7.00;99.90
18073;DHT22;9161;47.348;9.648;2023-12-29T09:11:50;6.90;99.90
18073;DHT22;9161;47.348;9.648;2023-12-29T09:16:54;6.90;99.90
18073;DHT22;9161;47.348;9.648;2023-12-29T09:21:56;7.10;99.90
18073;DHT22;9161;47.348;9.648;2023-12-29T09:26:58;7.30;99.90
18073;DHT22;9161;47.348;9.648;2023-12-29T09:32:01;7.50;99.90
18073;DHT22;9161;47.348;9.648;2023-12-29T09:37:04;7.80;99.90
18073;DHT22;9161;47.348;9.648;2023-12-29T09:42:06;7.90;99.90
18073;DHT22;9161;47.348;9.648;2023-12-29T09:47:11;7.70;99.90
18073;DHT22;9161;47.348;9.648;2023-12-29T09:52:16;7.70;99.90
18073;DHT22;9161;47.348;9.648;2023-12-29T09:57:19;8.30;99.90
18073;DHT22;9161;47.348;9.648;2023-12-29T10:02:24;8.30;99.90
18073;DHT22;9161;47.348;9.648;2023-12-29T10:07:27;9.50;99.90
18073;DHT22;9161;47.348;9.648;2023-12-29T10:12:31;9.00;99.90
18073;DHT22;9161;47.348;9.648;2023-12-29T10:17:43;8.80;99.90
18073;DHT22;9161;47.348;9.648;2023-12-29T10:22:51;8.70;99.90
18073;DHT22;9161;47.348;9.648;2023-12-29T10:27:55;8.50;99.90
18073;DHT22;9161;47.348;9.648;2023-12-29T10:33:00;8.90;99.90
18073;DHT22;9161;47.348;9.648;2023-12-29T10:38:09;9.30;99.90
18073;DHT22;9161;47.348;9.648;2023-12-29T10:43:12;9.50;99.90
18073;DHT22;9161;47.348;9.648;2023-12-29T10:48:22;10.40;99.90
18073;DHT22;9161;47.348;9.648;2023-12-29T10:53:25;9.70;99.90
18073;DHT22;9161;47.348;9.648;2023-12-29T10:58:27;9.30;99.90
18073;DHT22;9161;47.348;9.648;2023-12-29T11:03:31;9.50;99.90
18073;DHT22;9161;47.348;9.648;2023-12-29T11:08:35;9.70;99.90
18073;DHT22;9161;47.348;9.648;2023-12-29T11:13:38;9.90;99.90
18073;DHT22;9161;47.348;9.648;2023-12-29T11:18:43;10.10;99.90
18073;DHT22;9161;47.348;9.648;2023-12-29T11:23:46;11.30;99.90
18073;DHT22;9161;47.348;9.648;2023-12-29T11:28:49;12.50;99.90
18073;DHT22;9161;47.348;9.648;2023-12-29T11:33:59;11.90;99.90
18073;DHT22;9161;47.348;9.648;2023-12-29T11:39:06;11.30;99.90
18073;DHT22;9161;47.348;9.648;2023-12-29T11:44:11;11.20;99.90
18073;DHT22;9161;47.348;9.648;2023-12-29T11:49:14;11.40;99.90
18073;DHT22;9161;47.348;9.648;2023-12-29T11:54:22;11.60;99.90
18073;DHT22;9161;47.348;9.648;2023-12-29T11:59:24;11.50;99.90
18073;DHT22;9161;47.348;9.648;2023-12-29T12:04:39;11.30;99.90
18073;DHT22;9161;47.348;9.648;2023-12-29T12:09:44;11.30;99.90
18073;DHT22;9161;47.348;9.648;2023-12-29T12:14:51;11.10;99.90
18073;DHT22;9161;47.348;9.648;2023-12-29T12:19:57;10.60;99.90
18073;DHT22;9161;47.348;9.648;2023-12-29T12:25:00;10.60;99.90
18073;DHT22;9161;47.348;9.648;2023-12-29T12:30:03;10.60;99.90
18073;DHT22;9161;47.348;9.648;2023-12-29T12:35:13;10.60;99.90
18073;DHT22;9161;47.348;9.648;2023-12-29T12:40:26;10.70;99.90
18073;DHT22;9161;47.348;9.648;2023-12-29T12:45:29;10.70;99.90
18073;DHT22;9161;47.348;9.648;2023-12-29T12:50:36;11.00;99.90
18073;DHT22;9161;47.348;9.648;2023-12-29T12:55:38;11.50;99.90
18073;DHT22;9161;47.348;9.648;2023-12-29T13:00:40;11.80;99.90
18073;DHT22;9161;47.348;9.648;2023-12-29T13:05:45;12.10;99.90
18073;DHT22;9161;47.348;9.648;2023-12-29T13:10:47;11.80;99.90
18073;DHT22;9161;47.348;9.648;2023-12-29T13:15:50;11.80;99.90
18073;DHT22;9161;47.348;9.648;2023-12-29T13:20:56;11.10;99.90
18073;DHT22;9161;47.348;9.648;2023-12-29T13:26:01;10.60;99.90
18073;DHT22;9161;47.348;9.648;2023-12-29T13:31:05;10.80;99.90
18073;DHT22;9161;47.348;9.648;2023-12-29T13:36:11;10.60;99.90
18073;DHT22;9161;47.348;9.648;2023-12-29T13:41:20;10.90;99.90
18073;DHT22;9161;47.348;9.648;2023-12-29T13:46:24;10.70;99.90
18073;DHT22;9161;47.348;9.648;2023-12-29T13:51:28;10.70;99.90
18073;DHT22;9161;47.348;9.648;2023-12-29T13:56:30;11.20;99.90
18073;DHT22;9161;47.348;9.648;2023-12-29T14:01:36;11.20;99.90
18073;DHT22;9161;47.348;9.648;2023-12-29T14:06:42;11.60;99.90
18073;DHT22;9161;47.348;9.648;2023-12-29T14:11:45;12.30;99.90
18073;DHT22;9161;47.348;9.648;2023-12-29T14:16:48;12.50;99.90
18073;DHT22;9161;47.348;9.648;2023-12-29T14:21:53;13.80;99.90
18073;DHT22;9161;47.348;9.648;2023-12-29T14:26:56;14.50;99.90
18073;DHT22;9161;47.348;9.648;2023-12-29T14:32:00;14.30;99.90
18073;DHT22;9161;47.348;9.648;2023-12-29T14:37:04;13.30;99.90
18073;DHT22;9161;47.348;9.648;2023-12-29T14:42:06;12.60;99.90
18073;DHT22;9161;47.348;9.648;2023-12-29T14:47:09;11.10;99.90
18073;DHT22;9161;47.348;9.648;2023-12-29T14:52:12;11.00;99.90
18073;DHT22;9161;47.348;9.648;2023-12-29T14:57:14;11.20;99.90
18073;DHT22;9161;47.348;9.648;2023-12-29T15:02:21;10.50;99.90
18073;DHT22;9161;47.348;9.648;2023-12-29T15:07:25;10.60;99.90
18073;DHT22;9161;47.348;9.648;2023-12-29T15:12:31;10.60;99.90
18073;DHT22;9161;47.348;9.648;2023-12-29T15:17:36;12.00;99.90
18073;DHT22;9161;47.348;9.648;2023-12-29T15:22:39;11.00;99.90
18073;DHT22;9161;47.348;9.648;2023-12-29T15:27:43;10.10;99.90
18073;DHT22;9161;47.348;9.648;2023-12-29T15:32:46;9.40;99.90
18073;DHT22;9161;47.348;9.648;2023-12-29T15:37:50;8.80;99.90
18073;DHT22;9161;47.348;9.648;2023-12-29T15:42:52;8.50;99.90
18073;DHT22;9161;47.348;9.648;2023-12-29T15:47:55;8.10;99.90
18073;DHT22;9161;47.348;9.648;2023-12-29T15:52:59;7.80;99.90
18073;DHT22;9161;47.348;9.648;2023-12-29T15:58:01;7.60;99.90
18073;DHT22;9161;47.348;9.648;2023-12-29T16:03:05;7.30;99.90
18073;DHT22;9161;47.348;9.648;2023-12-29T16:08:09;7.30;99.90
18073;DHT22;9161;47.348;9.648;2023-12-29T16:13:12;7.40;99.90
18073;DHT22;9161;47.348;9.648;2023-12-29T16:18:18;7.40;99.90
18073;DHT22;9161;47.348;9.648;2023-12-29T16:23:23;7.00;99.90
18073;DHT22;9161;47.348;9.648;2023-12-29T16:28:25;7.10;99.90
18073;DHT22;9161;47.348;9.648;2023-12-29T16:33:29;7.00;99.90
18073;DHT22;9161;47.348;9.648;2023-12-29T16:38:35;6.90;99.90
18073;DHT22;9161;47.348;9.648;2023-12-29T16:43:37;7.00;99.90
18073;DHT22;9161;47.348;9.648;2023-12-29T16:48:40;6.90;99.90
18073;DHT22;9161;47.348;9.648;2023-12-29T16:53:45;6.70;99.90
18073;DHT22;9161;47.348;9.648;2023-12-29T16:58:49;6.50;99.90
18073;DHT22;9161;47.348;9.648;2023-12-29T17:03:54;6.60;99.90
18073;DHT22;9161;47.348;9.648;2023-12-29T17:08:58;6.50;99.90
18073;DHT22;9161;47.348;9.648;2023-12-29T17:14:01;6.40;99.90
18073;DHT22;9161;47.348;9.648;2023-12-29T17:19:04;6.40;99.90
18073;DHT22;9161;47.348;9.648;2023-12-29T17:24:08;6.40;99.90
18073;DHT22;9161;47.348;9.648;2023-12-29T17:29:10;6.30;99.90
18073;DHT22;9161;47.348;9.648;2023-12-29T17:34:12;6.50;99.90
18073;DHT22;9161;47.348;9.648;2023-12-29T17:39:16;6.60;99.90
18073;DHT22;9161;47.348;9.648;2023-12-29T17:44:18;6.70;99.90
18073;DHT22;9161;47.348;9.648;2023-12-29T17:49:20;6.80;99.90
18073;DHT22;9161;47.348;9.648;2023-12-29T17:54:27;6.70;99.90
18073;DHT22;9161;47.348;9.648;2023-12-29T17:59:30;6.80;99.90
18073;DHT22;9161;47.348;9.648;2023-12-29T18:04:32;6.90;99.90
18073;DHT22;9161;47.348;9.648;2023-12-29T18:09:38;7.00;99.90
18073;DHT22;9161;47.348;9.648;2023-12-29T18:14:41;7.00;99.90
18073;DHT22;9161;47.348;9.648;2023-12-29T18:19:44;7.10;99.90
18073;DHT22;9161;47.348;9.648;2023-12-29T18:24:48;7.00;99.90
18073;DHT22;9161;47.348;9.648;2023-12-29T18:29:51;6.90;99.90
18073;DHT22;9161;47.348;9.648;2023-12-29T18:34:53;6.70;99.90
18073;DHT22;9161;47.348;9.648;2023-12-29T18:39:56;6.50;99.90
18073;DHT22;9161;47.348;9.648;2023-12-29T18:44:58;6.50;99.90
18073;DHT22;9161;47.348;9.648;2023-12-29T18:50:00;6.40;99.90
18073;DHT22;9161;47.348;9.648;2023-12-29T18:55:06;6.50;99.90
18073;DHT22;9161;47.348;9.648;2023-12-29T19:00:11;6.50;99.90
18073;DHT22;9161;47.348;9.648;2023-12-29T19:05:14;6.50;99.90
18073;DHT22;9161;47.348;9.648;2023-12-29T19:10:18;6.70;99.90
18073;DHT22;9161;47.348;9.648;2023-12-29T19:15:20;6.60;99.90
18073;DHT22;9161;47.348;9.648;2023-12-29T19:20:24;6.60;99.90
18073;DHT22;9161;47.348;9.648;2023-12-29T19:25:29;7.30;99.90
18073;DHT22;9161;47.348;9.648;2023-12-29T19:30:31;7.50;99.90
18073;DHT22;9161;47.348;9.648;2023-12-29T19:35:35;8.10;99.90
18073;DHT22;9161;47.348;9.648;2023-12-29T19:40:39;9.00;99.90
18073;DHT22;9161;47.348;9.648;2023-12-29T19:45:42;9.10;99.90
18073;DHT22;9161;47.348;9.648;2023-12-29T19:50:45;8.60;99.90
18073;DHT22;9161;47.348;9.648;2023-12-29T19:55:50;8.10;99.90
18073;DHT22;9161;47.348;9.648;2023-12-29T20:00:53;8.70;99.90
18073;DHT22;9161;47.348;9.648;2023-12-29T20:05:55;8.20;99.90
18073;DHT22;9161;47.348;9.648;2023-12-29T20:10:59;8.40;99.90
18073;DHT22;9161;47.348;9.648;2023-12-29T20:16:02;7.90;99.90
18073;DHT22;9161;47.348;9.648;2023-12-29T20:21:05;8.10;99.90
18073;DHT22;9161;47.348;9.648;2023-12-29T20:26:09;8.30;99.90
18073;DHT22;9161;47.348;9.648;2023-12-29T20:31:22;8.40;99.90
18073;DHT22;9161;47.348;9.648;2023-12-29T20:36:26;8.70;99.90
18073;DHT22;9161;47.348;9.648;2023-12-29T20:41:31;8.80;99.90
18073;DHT22;9161;47.348;9.648;2023-12-29T20:46:35;9.00;99.90
18073;DHT22;9161;47.348;9.648;2023-12-29T20:51:38;9.10;99.90
18073;DHT22;9161;47.348;9.648;2023-12-29T20:56:41;9.30;99.90
18073;DHT22;9161;47.348;9.648;2023-12-29T21:01:45;9.00;99.90
18073;DHT22;9161;47.348;9.648;2023-12-29T21:06:47;8.80;99.90
18073;DHT22;9161;47.348;9.648;2023-12-29T21:11:51;8.70;99.90
18073;DHT22;9161;47.348;9.648;2023-12-29T21:16:54;8.60;99.90
18073;DHT22;9161;47.348;9.648;2023-12-29T21:21:56;8.30;99.90
18073;DHT22;9161;47.348;9.648;2023-12-29T21:27:01;8.00;99.90
18073;DHT22;9161;47.348;9.648;2023-12-29T21:32:04;7.90;99.90
18073;DHT22;9161;47.348;9.648;2023-12-29T21:37:06;7.70;99.90
18073;DHT22;9161;47.348;9.648;2023-12-29T21:42:10;7.60;99.90
18073;DHT22;9161;47.348;9.648;2023-12-29T21:47:13;7.60;99.90
18073;DHT22;9161;47.348;9.648;2023-12-29T21:52:18;7.60;99.90
18073;DHT22;9161;47.348;9.648;2023-12-29T21:57:22;8.20;99.90
18073;DHT22;9161;47.348;9.648;2023-12-29T22:02:24;8.20;99.90
18073;DHT22;9161;47.348;9.648;2023-12-29T22:07:26;7.80;99.90
18073;DHT22;9161;47.348;9.648;2023-12-29T22:12:30;7.60;99.90
18073;DHT22;9161;47.348;9.648;2023-12-29T22:17:32;7.40;99.90
18073;DHT22;9161;47.348;9.648;2023-12-29T22:22:35;7.50;99.90
18073;DHT22;9161;47.348;9.648;2023-12-29T22:27:38;7.50;99.90
18073;DHT22;9161;47.348;9.648;2023-12-29T22:32:40;7.50;99.90
18073;DHT22;9161;47.348;9.648;2023-12-29T22:37:43;7.30;99.90
18073;DHT22;9161;47.348;9.648;2023-12-29T22:42:48;7.20;99.90
18073;DHT22;9161;47.348;9.648;2023-12-29T22:47:51;7.00;99.90
18073;DHT22;9161;47.348;9.648;2023-12-29T22:52:55;6.90;99.90
18073;DHT22;9161;47.348;9.648;2023-12-29T22:58:01;6.70;99.90
18073;DHT22;9161;47.348;9.648;2023-12-29T23:03:04;6.70;99.90
18073;DHT22;9161;47.348;9.648;2023-12-29T23:08:07;7.50;99.90
18073;DHT22;9161;47.348;9.648;2023-12-29T23:13:11;7.60;99.90
18073;DHT22;9161;47.348;9.648;2023-12-29T23:18:14;7.70;99.90
18073;DHT22;9161;47.348;9.648;2023-12-29T23:23:16;7.30;99.90
18073;DHT22;9161;47.348;9.648;2023-12-29T23:28:20;7.00;99.90
18073;DHT22;9161;47.348;9.648;2023-12-29T23:33:23;6.70;99.90
18073;DHT22;9161;47.348;9.648;2023-12-29T23:38:26;6.50;99.90
18073;DHT22;9161;47.348;9.648;2023-12-29T23:43:31;6.30;99.90
18073;DHT22;9161;47.348;9.648;2023-12-29T23:48:36;6.30;99.90
18073;DHT22;9161;47.348;9.648;2023-12-29T23:53:39;6.30;99.90
18073;DHT22;9161;47.348;9.648;2023-12-29T23:58:42;6.40;99.90
